Time;durP1;ratioP1;P1;durP2;ratioP2;P2;SDS_P1;SDS_P2;PMS_P1;PMS_P2;Temp;Humidity;BMP_temperature;BMP_pressure;BME280_temperature;BME280_humidity;BME280_pressure;Samples;Min_cycle;Max_cycle;Signal;HPM_P1;HPM_P2
2022/04/04 00:01:07;;;;;;;7.55;4.00;;;2.70;99.90;;;;;;5016422;28;20039;-89
2022/04/04 00:03:33;;;;;;;8.75;4.35;;;2.80;99.90;;;;;;5000088;28;20400;-89
2022/04/04 00:05:59;;;;;;;7.50;4.40;;;2.80;99.90;;;;;;4996701;28;20038;-89
2022/04/04 00:08:26;;;;;;;10.30;4.43;;;2.80;99.90;;;;;;5009765;28;20118;-91
2022/04/04 00:10:51;;;;;;;10.07;4.45;;;2.80;99.90;;;;;;5017018;28;20037;-88
2022/04/04 00:13:17;;;;;;;11.77;4.35;;;2.80;99.90;;;;;;5014928;28;20092;-89
2022/04/04 00:15:43;;;;;;;7.53;4.80;;;2.70;99.90;;;;;;5012520;28;20574;-90
2022/04/04 00:18:11;;;;;;;10.77;5.05;;;2.80;99.90;;;;;;4998736;28;20055;-89
2022/04/04 00:20:40;;;;;;;8.43;4.78;;;2.70;99.90;;;;;;4996665;28;20098;-89
2022/04/04 00:23:12;;;;;;;8.52;4.28;;;2.70;99.90;;;;;;5023732;28;20452;-89
2022/04/04 00:25:46;;;;;;;8.30;5.05;;;2.70;99.90;;;;;;4991341;28;20465;-89
2022/04/04 00:28:13;;;;;;;10.38;5.18;;;2.70;99.90;;;;;;5023246;28;20159;-88
2022/04/04 00:30:39;;;;;;;10.98;4.57;;;2.70;99.90;;;;;;5012422;28;20075;-89
2022/04/04 00:33:06;;;;;;;10.93;4.85;;;2.70;99.90;;;;;;4992406;28;20029;-89
2022/04/04 00:35:32;;;;;;;7.45;4.55;;;2.70;99.90;;;;;;5019105;28;20122;-90
2022/04/04 00:37:58;;;;;;;11.20;5.03;;;2.70;99.90;;;;;;5016073;28;20033;-89
2022/04/04 00:40:25;;;;;;;8.27;4.63;;;2.70;99.90;;;;;;4995012;28;20037;-88
2022/04/04 00:42:51;;;;;;;10.32;4.60;;;2.70;99.90;;;;;;5012275;28;20044;-88
2022/04/04 00:45:17;;;;;;;11.20;4.90;;;2.70;99.90;;;;;;4997451;28;20053;-89
2022/04/04 00:47:43;;;;;;;9.75;5.45;;;2.70;99.90;;;;;;5013639;28;20048;-89
2022/04/04 00:50:09;;;;;;;8.70;4.90;;;2.70;99.90;;;;;;4992017;28;20122;-89
2022/04/04 00:52:35;;;;;;;9.13;4.85;;;2.70;99.90;;;;;;5012655;28;20048;-89
2022/04/04 00:55:02;;;;;;;9.60;4.90;;;2.70;99.90;;;;;;5011955;28;20033;-87
2022/04/04 00:57:29;;;;;;;9.98;4.85;;;2.70;99.90;;;;;;5004273;28;20537;-86
2022/04/04 00:59:58;;;;;;;9.77;5.28;;;2.70;99.90;;;;;;5027879;28;20072;-88
2022/04/04 01:02:27;;;;;;;10.55;4.88;;;;;;;;;;5020589;28;20075;-88
2022/04/04 01:04:53;;;;;;;12.02;5.25;;;;;;;;;;4995639;28;20040;-87
2022/04/04 01:07:19;;;;;;;9.45;5.30;;;2.80;99.90;;;;;;4985521;28;20037;-89
2022/04/04 01:09:45;;;;;;;12.70;6.43;;;;;;;;;;4999602;28;20047;-88
2022/04/04 01:12:12;;;;;;;8.38;4.63;;;;;;;;;;4996586;28;20044;-88
2022/04/04 01:14:47;;;;;;;10.23;4.60;;;;;;;;;;5017123;28;20040;-87
2022/04/04 01:17:14;;;;;;;11.63;4.68;;;;;;;;;;4993630;28;20592;-89
2022/04/04 01:19:40;;;;;;;9.45;4.82;;;;;;;;;;4997924;28;20404;-88
2022/04/04 01:22:08;;;;;;;9.88;6.15;;;;;;;;;;5013154;28;20033;-88
2022/04/04 01:24:37;;;;;;;12.07;5.93;;;;;;;;;;5011243;28;20029;-91
2022/04/04 01:27:03;;;;;;;6.57;4.78;;;;;;;;;;5012499;28;20036;-86
2022/04/04 01:29:40;;;;;;;8.00;5.15;;;;;;;;;;5000571;28;20040;-87
2022/04/04 01:32:07;;;;;;;8.88;6.10;;;;;;;;;;5008486;28;20029;-88
2022/04/04 01:34:33;;;;;;;11.45;5.65;;;;;;;;;;5008905;28;20460;-87
2022/04/04 01:36:59;;;;;;;11.80;6.25;;;;;;;;;;5001988;28;20502;-86
2022/04/04 01:39:31;;;;;;;11.40;5.82;;;;;;;;;;4990042;28;20034;-87
2022/04/04 01:41:57;;;;;;;11.70;6.60;;;;;;;;;;4994370;28;20648;-87
2022/04/04 01:44:24;;;;;;;13.07;7.57;;;;;;;;;;5008807;28;20033;-88
2022/04/04 01:46:50;;;;;;;11.88;6.28;;;;;;;;;;5013746;28;20505;-88
2022/04/04 01:49:16;;;;;;;13.70;7.90;;;;;;;;;;5006360;28;20045;-89
2022/04/04 01:51:42;;;;;;;14.40;8.35;;;;;;;;;;5012912;28;20060;-88
2022/04/04 01:54:17;;;;;;;16.15;8.75;;;;;;;;;;4994571;28;20040;-88
2022/04/04 01:56:43;;;;;;;18.60;8.55;;;;;;;;;;4996396;28;20044;-87
2022/04/04 01:59:10;;;;;;;15.48;9.70;;;;;;;;;;5011018;28;20037;-87
2022/04/04 02:01:36;;;;;;;16.40;9.25;;;;;;;;;;5009056;28;20666;-88
2022/04/04 02:04:03;;;;;;;14.10;9.57;;;;;;;;;;5010193;28;20033;-89
2022/04/04 02:06:33;;;;;;;14.55;9.52;;;;;;;;;;5010388;28;21702;-88
2022/04/04 02:08:59;;;;;;;14.85;9.38;;;;;;;;;;5011466;28;20095;-89
2022/04/04 02:11:25;;;;;;;15.70;10.23;;;;;;;;;;5010955;28;20068;-86
2022/04/04 02:13:51;;;;;;;16.48;10.55;;;;;;;;;;5010793;28;20375;-88
2022/04/04 02:16:18;;;;;;;16.15;11.05;;;;;;;;;;5008857;28;20045;-88
2022/04/04 02:18:44;;;;;;;17.17;11.00;;;;;;;;;;5012388;28;20036;-88
2022/04/04 02:21:11;;;;;;;16.17;10.48;;;;;;;;;;5013273;28;20128;-87
2022/04/04 02:23:37;;;;;;;17.75;10.73;;;;;;;;;;5013759;28;20052;-88
2022/04/04 02:26:04;;;;;;;15.10;10.07;;;;;;;;;;5012478;28;20079;-87
2022/04/04 02:28:30;;;;;;;14.02;9.98;;;;;;;;;;5023491;28;20041;-90
2022/04/04 02:31:00;;;;;;;17.80;11.25;;;;;;;;;;5011212;28;20519;-88
2022/04/04 02:33:29;;;;;;;19.83;11.00;;;;;;;;;;5007161;28;20037;-89
2022/04/04 02:36:03;;;;;;;17.02;10.75;;;;;;;;;;5009781;28;20041;-90
2022/04/04 02:38:30;;;;;;;18.90;11.00;;;;;;;;;;5004588;28;20048;-88
2022/04/04 02:40:59;;;;;;;20.13;11.98;;;;;;;;;;5012022;28;20040;-88
2022/04/04 02:43:28;;;;;;;17.55;10.40;;;;;;;;;;5006903;28;21059;-88
2022/04/04 02:45:55;;;;;;;18.48;10.55;;;;;;;;;;5010465;28;20029;-87
2022/04/04 02:48:21;;;;;;;18.40;11.90;;;;;;;;;;5009757;28;20585;-87
2022/04/04 02:50:48;;;;;;;18.38;11.95;;;;;;;;;;5007760;28;20122;-89
2022/04/04 02:53:14;;;;;;;16.58;11.38;;;;;;;;;;5010402;28;20040;-88
2022/04/04 02:58:25;;;;;;;20.98;12.43;;;;;;;;;;5018892;28;20125;-90
2022/04/04 03:00:54;;;;;;;22.17;12.07;;;;;;;;;;5007783;28;20041;-89
2022/04/04 03:03:21;;;;;;;23.65;12.98;;;;;;;;;;5006842;28;20044;-87
2022/04/04 03:05:47;;;;;;;20.20;12.02;;;;;;;;;;5006282;28;20044;-87
2022/04/04 03:08:13;;;;;;;22.38;13.10;;;;;;;;;;5010907;28;20037;-89
2022/04/04 03:10:40;;;;;;;24.98;12.48;;;;;;;;;;5010660;28;20794;-88
2022/04/04 03:13:20;;;;;;;21.73;12.38;;;;;;;;;;5007002;28;20430;-88
2022/04/04 03:15:46;;;;;;;23.33;13.27;;;;;;;;;;5019019;28;20056;-88
2022/04/04 03:18:38;;;;;;;22.70;13.13;;;;;;;;;;5011061;28;20040;-88
2022/04/04 03:21:05;;;;;;;23.55;12.88;;;;;;;;;;5010774;28;20037;-88
2022/04/04 03:23:31;;;;;;;20.48;12.15;;;;;;;;;;5002598;28;20041;-89
2022/04/04 03:25:57;;;;;;;26.05;12.90;;;;;;;;;;5008715;28;20040;-88
2022/04/04 03:28:25;;;;;;;21.30;11.80;;;;;;;;;;5008251;28;20064;-89
2022/04/04 03:30:51;;;;;;;21.83;13.07;;;;;;;;;;5014863;28;20461;-86
2022/04/04 03:33:20;;;;;;;22.92;12.93;;;;;;;;;;5016127;28;20544;-88
2022/04/04 03:35:47;;;;;;;20.05;11.68;;;;;;;;;;4996994;28;20040;-87
2022/04/04 03:38:14;;;;;;;23.05;12.70;;;;;;;;;;5027431;28;20037;-88
2022/04/04 03:40:41;;;;;;;22.13;13.10;;;;;;;;;;5011742;28;20128;-86
2022/04/04 03:43:08;;;;;;;22.42;13.10;;;;;;;;;;5009619;28;20044;-88
2022/04/04 03:45:35;;;;;;;28.50;13.30;;;;;;;;;;5009860;28;20037;-88
2022/04/04 03:48:01;;;;;;;21.52;12.45;;;;;;;;;;5016732;28;20036;-88
2022/04/04 03:50:40;;;;;;;23.58;11.52;;;;;;;;;;5014164;28;20041;-88
2022/04/04 03:53:07;;;;;;;21.63;12.90;;;;;;;;;;5010522;28;20040;-88
2022/04/04 03:55:36;;;;;;;23.38;13.15;;;;;;;;;;5014071;28;20525;-86
2022/04/04 03:58:05;;;;;;;25.88;12.70;;;;;;;;;;5010946;28;20037;-87
2022/04/04 04:00:35;;;;;;;21.05;11.98;;;;;;;;;;5012826;28;20045;-87
2022/04/04 04:03:04;;;;;;;20.50;13.07;;;;;;;;;;5013822;28;20040;-87
2022/04/04 04:05:30;;;;;;;20.63;12.48;;;;;;;;;;5013048;28;20041;-90
2022/04/04 04:07:56;;;;;;;23.83;12.98;;;;;;;;;;4994822;28;20041;-88
2022/04/04 04:10:23;;;;;;;21.27;12.48;;;;;;;;;;5015828;28;20401;-86
2022/04/04 04:12:52;;;;;;;23.77;11.38;;;;;;;;;;5011183;28;20045;-87
2022/04/04 04:15:19;;;;;;;22.95;13.38;;;;;;;;;;5029297;28;20037;-88
2022/04/04 04:17:52;;;;;;;20.65;12.15;;;;;;;;;;5016799;28;20048;-87
2022/04/04 04:20:31;;;;;;;20.30;11.73;;;;;;;;;;5014036;28;20041;-90
2022/04/04 04:23:04;;;;;;;16.08;10.65;;;;;;;;;;5014870;28;20033;-90
2022/04/04 04:25:44;;;;;;;23.10;10.85;;;;;;;;;;5012668;28;20045;-87
2022/04/04 04:28:10;;;;;;;22.85;13.40;;;;;;;;;;4997336;28;20439;-87
2022/04/04 04:30:40;;;;;;;23.88;11.70;;;;;;;;;;4992069;28;20038;-88
2022/04/04 04:33:07;;;;;;;20.58;11.85;;;;;;;;;;5011236;28;20049;-87
2022/04/04 04:35:34;;;;;;;24.40;13.00;;;;;;;;;;5000085;28;20063;-88
2022/04/04 04:38:00;;;;;;;20.15;12.48;;;;;;;;;;5018718;23;20046;-89
2022/04/04 04:40:31;;;;;;;22.25;11.98;;;;;;;;;;4997425;28;20553;-89
2022/04/04 04:43:01;;;;;;;20.10;12.65;;;;;;;;;;4989865;28;20079;-86
2022/04/04 04:45:30;;;;;;;20.48;13.57;;;;;;;;;;4990293;28;20026;-89
2022/04/04 04:48:00;;;;;;;21.38;13.63;;;;;;;;;;4989334;28;20499;-91
2022/04/04 04:50:28;;;;;;;19.70;11.43;;;;;;;;;;5002138;28;20049;-89
2022/04/04 04:52:58;;;;;;;32.35;13.48;;;;;;;;;;4992479;28;20052;-88
2022/04/04 04:55:27;;;;;;;20.70;12.73;;;;;;;;;;4989865;28;20628;-88
2022/04/04 04:57:54;;;;;;;24.13;13.75;;;;;;;;;;4978333;28;20530;-90
2022/04/04 05:00:25;;;;;;;20.08;12.25;;;;;;;;;;4990896;28;20037;-89
2022/04/04 05:05:55;;;;;;;24.85;14.50;;;;;;;;;;5008241;28;20669;-90
2022/04/04 05:08:25;;;;;;;19.88;13.13;;;;;;;;;;4986170;28;20045;-90
2022/04/04 05:10:52;;;;;;;19.92;11.82;;;;;;;;;;4994113;28;20100;-88
2022/04/04 05:13:21;;;;;;;24.27;14.38;;;;;;;;;;4992297;28;20076;-90
2022/04/04 05:15:56;;;;;;;19.40;12.95;;;;;;;;;;4992078;28;20041;-88
2022/04/04 05:18:22;;;;;;;19.33;11.95;;;;;;;;;;4976115;28;20097;-89
2022/04/04 05:20:49;;;;;;;24.73;13.63;;;;;;;;;;4995060;28;20041;-89
2022/04/04 05:23:18;;;;;;;20.02;12.15;;;;;;;;;;4993098;28;20107;-88
2022/04/04 05:25:46;;;;;;;21.42;11.90;;;;;;;;;;4984799;28;20096;-87
2022/04/04 05:28:12;;;;;;;27.27;14.27;;;;;;;;;;5001585;28;20182;-88
2022/04/04 05:30:39;;;;;;;26.42;13.07;;;;;;;;;;4992844;28;20041;-90
2022/04/04 05:33:05;;;;;;;19.90;13.82;;;;;;;;;;4994000;28;20061;-89
2022/04/04 05:35:31;;;;;;;25.38;13.60;;;;;;;;;;4994796;28;20045;-86
2022/04/04 05:38:00;;;;;;;27.23;13.05;;;;;;;;;;4977848;28;20107;-87
2022/04/04 05:40:26;;;;;;;20.45;11.80;;;;;;;;;;4989758;28;20042;-88
2022/04/04 05:42:56;;;;;;;18.52;12.95;;;;;;;;;;4989887;28;20062;-89
2022/04/04 05:45:22;;;;;;;20.73;13.35;;;;;;;;;;5004220;28;20042;-90
2022/04/04 05:47:52;;;;;;;24.30;12.85;;;;;;;;;;4989979;28;20494;-89
2022/04/04 05:50:21;;;;;;;18.52;12.68;;;;;;;;;;4983370;28;20077;-88
2022/04/04 05:52:50;;;;;;;22.67;11.50;;;;;;;;;;4968589;28;20045;-87
2022/04/04 05:55:17;;;;;;;18.52;11.05;;;;;;;;;;5003567;28;20034;-87
2022/04/04 05:57:50;;;;;;;13.70;9.50;;;;;;;;;;4996845;28;20136;-86
2022/04/04 06:00:16;;;;;;;;;;;;;;;;;;4984441;28;20037;-88
2022/04/04 06:02:57;;;;;;;23.75;11.90;;;;;;;;;;4982146;28;19976;-88
2022/04/04 06:05:23;;;;;;;22.17;12.00;;;;;;;;;;4987813;28;20501;-88
2022/04/04 06:07:49;;;;;;;22.30;13.25;;;;;;;;;;5001395;28;20442;-89
2022/04/04 06:10:16;;;;;;;23.98;12.77;;;;;;;;;;5001155;28;20080;-89
2022/04/04 06:12:46;;;;;;;21.25;12.63;;;;;;;;;;4987526;28;20578;-89
2022/04/04 06:15:21;;;;;;;;;;;;;;;;;;4991131;28;20051;-89
2022/04/04 06:17:47;;;;;;;18.43;11.87;;;;;;;;;;4987189;28;20527;-88
2022/04/04 06:20:14;;;;;;;23.40;13.30;;;;;;;;;;4983683;28;20041;-87
2022/04/04 06:22:59;;;;;;;22.58;13.10;;;;;;;;;;4968537;28;20034;-89
2022/04/04 06:25:38;;;;;;;20.33;11.30;;;;;;;;;;4981666;28;20052;-88
2022/04/04 06:28:10;;;;;;;22.63;11.18;;;;;;;;;;4987519;28;20048;-87
2022/04/04 06:30:42;;;;;;;20.58;11.88;;;;;;;;;;4976400;28;20041;-90
2022/04/04 06:33:12;;;;;;;21.05;13.32;;;;;;;;;;4981067;28;20099;-88
2022/04/04 06:35:52;;;;;;;24.42;13.38;;;;;;;;;;4994994;28;20052;-88
2022/04/04 06:38:27;;;;;;;24.75;13.93;;;;;;;;;;4991636;28;20075;-89
2022/04/04 06:40:57;;;;;;;25.30;14.52;;;;;;;;;;5005003;28;20317;-90
2022/04/04 06:43:36;;;;;;;26.33;15.63;;;;;;;;;;4977508;28;20052;-88
2022/04/04 06:46:05;;;;;;;22.55;13.95;;;;;;;;;;4973032;28;20048;-88
2022/04/04 06:48:51;;;;;;;23.15;15.00;;;;;;;;;;4991940;28;20029;-90
2022/04/04 06:51:25;;;;;;;21.92;13.02;;;;;;;;;;4967497;28;20383;-89
2022/04/04 06:53:52;;;;;;;26.15;16.20;;;;;;;;;;4986771;28;20038;-90
2022/04/04 06:56:28;;;;;;;23.75;15.00;;;;;;;;;;5005515;28;20472;-88
2022/04/04 06:58:58;;;;;;;23.60;15.77;;;;;;;;;;5006660;28;20044;-92
2022/04/04 07:01:35;;;;;;;22.95;15.93;;;;;;;;;;4982647;28;20126;-90
2022/04/04 07:04:10;;;;;;;30.77;15.65;;;;;;;;;;4987582;28;20034;-89
2022/04/04 07:06:42;;;;;;;31.20;16.65;;;;;;;;;;4992958;28;20038;-91
2022/04/04 07:09:11;;;;;;;29.30;17.27;;;;;;;;;;4991113;28;20782;-91
2022/04/04 07:11:43;;;;;;;29.45;16.88;;;;;;;;;;4989183;28;20085;-88
2022/04/04 07:14:15;;;;;;;31.20;15.82;;;;;;;;;;4981730;28;20421;-90
2022/04/04 07:16:42;;;;;;;26.38;17.65;;;;;;;;;;4973730;28;20416;-90
2022/04/04 07:19:12;;;;;;;34.05;19.10;;;;;;;;;;4980330;28;20124;-89
2022/04/04 07:21:46;;;;;;;32.28;19.58;;;;;;;;;;4987924;28;20120;-90
2022/04/04 07:24:12;;;;;;;26.42;16.58;;;;;;;;;;4985989;28;20561;-91
2022/04/04 07:26:54;;;;;;;35.97;19.55;;;;;;;;;;4969350;28;20038;-92
2022/04/04 07:29:24;;;;;;;31.50;19.90;;;;;;;;;;4981775;28;20570;-91
2022/04/04 07:57:50;;;;;;;29.65;20.30;;;;;;;;;;5018708;28;20128;-92
2022/04/04 08:00:36;;;;;;;42.28;24.83;;;;;;;;;;5021079;28;20047;-90
2022/04/04 08:03:08;;;;;;;38.13;24.02;;;;;;;;;;5018068;28;20582;-89
2022/04/04 08:05:44;;;;;;;40.00;25.73;;;;;;;;;;5003499;28;20184;-93
2022/04/04 08:08:10;;;;;;;42.53;25.63;;;;;;;;;;4991879;28;20033;-88
2022/04/04 08:10:51;;;;;;;42.85;26.70;;;;;;;;;;5002830;28;20076;-90
2022/04/04 08:13:25;;;;;;;46.15;27.33;;;;;;;;;;5006409;28;20550;-92
2022/04/04 08:15:56;;;;;;;40.55;26.58;;;;;;;;;;5008985;28;20041;-89
2022/04/04 08:18:56;;;;;;;42.72;25.42;;;;;;;;;;5011007;28;20074;-90
2022/04/04 08:21:23;;;;;;;39.28;25.13;;;;;;;;;;4990793;28;20033;-90
2022/04/04 08:24:05;;;;;;;33.72;20.20;;;;;;;;;;5005520;28;20574;-91
2022/04/04 08:26:38;;;;;;;43.93;27.67;;;;;;;;;;5007903;28;20095;-89
2022/04/04 08:29:05;;;;;;;48.13;30.08;;;;;;;;;;5008093;28;20355;-89
2022/04/04 08:31:31;;;;;;;49.72;29.05;;;;;;;;;;5007288;28;20060;-87
2022/04/04 08:34:04;;;;;;;45.67;27.92;;;;;;;;;;5011811;28;20060;-92
2022/04/04 08:36:51;;;;;;;41.92;25.85;;;;;;;;;;5014409;28;20406;-89
2022/04/04 08:39:20;;;;;;;38.22;23.10;;;;;;;;;;5013666;28;20087;-89
2022/04/04 08:41:50;;;;;;;30.77;21.65;;;;;;;;;;5009093;28;20034;-89
2022/04/04 08:44:20;;;;;;;37.13;23.02;;;;;;;;;;5003530;28;20049;-90
2022/04/04 08:47:19;;;;;;;38.33;23.75;;;;;;;;;;4983827;28;20417;-89
2022/04/04 08:49:50;;;;;;;40.75;24.08;;;;;;;;;;5008811;28;20052;-91
2022/04/04 08:52:26;;;;;;;37.90;23.52;;;;;;;;;;5002535;28;20095;-87
2022/04/04 08:57:50;;;;;;;31.00;20.30;;;;;;;;;;4982193;28;20172;-93
2022/04/04 09:00:21;;;;;;;31.40;22.02;;;;;;;;;;5000234;28;20033;-91
2022/04/04 09:03:09;;;;;;;32.22;19.90;;;;;;;;;;5011170;28;20039;-92
2022/04/04 09:05:52;;;;;;;27.05;17.83;;;;;;;;;;5025857;28;20087;-93
2022/04/04 09:08:25;;;;;;;35.67;19.50;;;2.80;99.90;;;;;;5007690;28;20172;-91
2022/04/04 09:10:57;;;;;;;25.20;15.15;;;;;;;;;;5011912;28;20095;-92
2022/04/04 09:13:34;;;;;;;28.63;17.02;;;;;;;;;;5020136;28;20041;-93
2022/04/04 09:16:01;;;;;;;23.88;14.38;;;;;;;;;;5018608;28;20048;-88
2022/04/04 09:18:49;;;;;;;25.70;15.38;;;;;;;;;;5016495;28;20043;-91
2022/04/04 09:21:18;;;;;;;22.63;12.70;;;5.10;99.90;;;;;;5010185;28;20040;-91
2022/04/04 09:24:01;;;;;;;23.33;12.40;;;5.20;99.90;;;;;;5006675;28;20041;-91
2022/04/04 09:27:12;;;;;;;17.38;9.45;;;5.10;99.90;;;;;;5016445;28;20037;-89
2022/04/04 14:13:03;;;;;;;4.57;2.28;;;;;;;;;;4965602;28;20051;-90
2022/04/04 14:15:32;;;;;;;5.20;2.25;;;;;;;;;;4936010;28;20051;-92
2022/04/04 14:17:59;;;;;;;3.75;2.60;;;;;;;;;;4935223;28;20055;-89
2022/04/04 14:20:25;;;;;;;5.20;2.33;;;;;;;;;;4918134;28;20118;-91
2022/04/04 14:22:54;;;;;;;3.95;2.40;;;;;;;;;;4930703;28;20090;-90
2022/04/04 14:25:24;;;;;;;2.47;2.00;;;;;;;;;;4914550;28;20682;-90
2022/04/04 14:27:50;;;;;;;4.50;2.60;;;;;;;;;;4926739;28;20039;-91
2022/04/04 14:30:29;;;;;;;4.20;2.33;;;;;;;;;;4926633;28;20075;-92
2022/04/04 14:32:55;;;;;;;4.45;2.22;;;;;;;;;;4922656;28;20051;-92
2022/04/04 14:35:24;;;;;;;6.60;3.00;;;;;;;;;;4914056;28;20572;-91
2022/04/04 14:37:51;;;;;;;4.72;2.78;;;;;;;;;;4906427;28;20047;-91
2022/04/04 14:40:18;;;;;;;5.25;2.95;;;;;;;;;;4914707;28;20044;-90
2022/04/04 14:42:44;;;;;;;6.10;3.15;;;;;;;;;;4912890;28;20097;-91
2022/04/04 14:45:11;;;;;;;6.15;3.40;;;;;;;;;;4919343;28;20035;-91
2022/04/04 14:47:38;;;;;;;8.18;3.85;;;;;;;;;;4911267;28;20047;-88
2022/04/04 14:50:07;;;;;;;10.75;3.47;;;;;;;;;;4913322;29;20074;-94
2022/04/04 14:52:37;;;;;;;7.22;3.45;;;;;;;;;;4933812;28;20137;-89
2022/04/04 14:55:07;;;;;;;9.50;3.80;;;;;;;;;;4927717;29;20039;-88
2022/04/04 14:57:34;;;;;;;9.48;4.38;;;;;;;;;;4940903;28;20089;-91
2022/04/04 15:00:03;;;;;;;12.75;4.43;;;7.90;99.90;;;;;;4920728;29;20039;-89
2022/04/04 15:02:29;;;;;;;10.60;4.13;;;;;;;;;;4920609;29;20067;-90
2022/04/04 15:04:55;;;;;;;8.30;3.83;;;8.60;99.90;;;;;;4924554;28;20752;-89
2022/04/04 15:07:28;;;;;;;12.30;4.93;;;8.60;99.90;;;;;;4924347;29;20484;-89
2022/04/04 15:09:58;;;;;;;11.73;4.43;;;8.60;99.90;;;;;;4930401;29;20195;-89
2022/04/04 15:12:25;;;;;;;22.23;6.72;;;8.70;99.90;;;;;;4917619;29;20047;-89
2022/04/04 15:14:51;;;;;;;22.90;7.57;;;8.80;99.90;;;;;;4907632;29;20123;-90
2022/04/04 15:17:20;;;;;;;24.35;8.30;;;8.90;99.90;;;;;;4899510;29;20059;-92
2022/04/04 15:19:47;;;;;;;23.17;8.80;;;9.00;99.90;;;;;;4879383;29;20123;-91
2022/04/04 15:22:12;;;;;;;31.10;9.80;;;9.10;99.90;;;;;;4872090;29;20039;-92
2022/04/04 15:24:38;;;;;;;31.08;10.48;;;9.10;99.90;;;;;;4903432;29;20067;-94
2022/04/04 15:27:04;;;;;;;33.30;10.80;;;9.20;99.90;;;;;;4902233;29;20507;-90
2022/04/04 15:29:32;;;;;;;33.88;11.25;;;9.30;99.90;;;;;;4920282;29;20047;-89
2022/04/04 15:32:05;;;;;;;37.05;12.27;;;9.30;99.90;;;;;;4904895;29;20069;-90
2022/04/04 15:34:35;;;;;;;40.10;11.35;;;9.30;99.90;;;;;;4901487;29;20044;-91
2022/04/04 15:37:08;;;;;;;35.08;11.77;;;9.30;99.90;;;;;;4924500;29;20039;-91
2022/04/04 15:39:35;;;;;;;40.97;11.57;;;9.30;99.90;;;;;;4903187;29;20044;-89
2022/04/04 15:42:02;;;;;;;35.63;10.85;;;9.30;99.90;;;;;;4907456;29;20037;-90
2022/04/04 15:44:38;;;;;;;44.95;10.73;;;9.30;99.90;;;;;;4892222;29;20179;-91
2022/04/04 15:47:10;;;;;;;36.95;10.55;;;9.30;99.90;;;;;;4899313;29;20032;-93
2022/04/04 15:49:40;;;;;;;42.72;9.68;;;9.30;99.90;;;;;;4923280;29;20086;-92
2022/04/04 15:52:14;;;;;;;38.15;10.30;;;9.30;99.90;;;;;;4906281;29;20288;-91
2022/04/04 15:54:55;;;;;;;36.78;10.05;;;9.30;99.90;;;;;;4918439;29;20051;-91
2022/04/04 15:57:20;;;;;;;38.20;10.05;;;9.30;99.90;;;;;;4895251;29;20062;-89
2022/04/04 15:59:46;;;;;;;28.00;9.70;;;9.30;99.90;;;;;;4917831;29;20568;-93
2022/04/04 16:02:18;;;;;;;41.53;8.93;;;9.40;99.90;;;;;;4925302;29;20098;-91
2022/04/04 16:04:44;;;;;;;35.00;8.45;;;9.40;99.90;;;;;;4904194;29;20546;-91
2022/04/04 16:07:23;;;;;;;26.38;7.60;;;9.40;99.90;;;;;;4905856;29;20063;-91
2022/04/04 16:09:52;;;;;;;34.95;7.97;;;9.40;99.90;;;;;;4918714;29;20046;-90
2022/04/04 16:12:24;;;;;;;32.10;7.95;;;9.40;99.90;;;;;;4919547;29;20043;-91
2022/04/04 16:14:53;;;;;;;21.25;7.38;;;9.40;99.90;;;;;;4921756;29;20039;-92
2022/04/04 16:17:26;;;;;;;30.85;7.10;;;9.40;99.90;;;;;;4903385;29;20040;-91
2022/04/04 16:19:56;;;;;;;30.95;6.40;;;9.40;99.90;;;;;;4920069;29;20040;-91
2022/04/04 16:22:27;;;;;;;33.53;6.20;;;9.30;99.90;;;;;;4920315;29;20497;-92
2022/04/04 16:25:07;;;;;;;24.67;5.97;;;9.30;99.90;;;;;;4918958;29;20054;-91
2022/04/04 16:27:49;;;;;;;25.00;5.65;;;9.30;99.90;;;;;;4907909;29;20035;-93
2022/04/04 16:30:20;;;;;;;30.02;5.75;;;9.20;99.90;;;;;;4904332;29;20044;-92
2022/04/04 16:32:49;;;;;;;27.13;5.95;;;9.20;99.90;;;;;;4921328;29;20039;-90
2022/04/04 16:35:19;;;;;;;23.02;5.03;;;9.20;99.90;;;;;;4918347;29;20047;-91
2022/04/04 16:37:46;;;;;;;34.40;5.63;;;9.20;99.90;;;;;;4897477;29;20122;-91
2022/04/04 16:40:14;;;;;;;24.83;4.55;;;9.10;99.90;;;;;;4904139;29;20416;-93
2022/04/04 16:45:41;;;;;;;31.15;5.30;;;9.10;99.90;;;;;;4906880;29;20661;-91
2022/04/04 16:48:08;;;;;;;31.33;5.32;;;9.00;99.90;;;;;;4909325;29;20039;-89
2022/04/04 16:50:45;;;;;;;27.27;4.32;;;9.00;99.90;;;;;;4901141;29;20051;-92
2022/04/04 16:53:23;;;;;;;25.85;4.72;;;9.00;99.90;;;;;;4917395;29;20043;-89
2022/04/04 16:59:05;;;;;;;27.00;4.70;;;9.00;99.90;;;;;;4902197;29;20048;-91
2022/04/04 17:01:52;;;;;;;;;;;;;;;;;;;;;
2022/04/04 17:04:20;;;;;;;27.30;4.57;;;8.90;99.90;;;;;;4903032;29;20114;-91
2022/04/04 17:06:46;;;;;;;28.75;4.70;;;8.90;99.90;;;;;;4883286;29;20036;-90
2022/04/04 17:09:20;;;;;;;26.40;4.72;;;8.90;99.90;;;;;;4909847;29;20114;-91
2022/04/04 17:12:09;;;;;;;23.92;4.35;;;8.90;99.90;;;;;;4892958;29;20568;-92
2022/04/04 17:14:57;;;;;;;23.65;4.47;;;8.90;99.90;;;;;;4891902;29;20424;-91
2022/04/04 17:17:29;;;;;;;23.33;4.78;;;8.80;99.90;;;;;;4920059;29;20043;-91
2022/04/04 17:20:47;;;;;;;29.23;4.70;;;8.80;99.90;;;;;;4918698;29;20039;-92
2022/04/04 17:23:14;;;;;;;29.10;4.78;;;8.80;99.90;;;;;;4905731;28;20042;-90
2022/04/04 17:25:47;;;;;;;22.02;3.80;;;8.80;99.90;;;;;;4915913;29;20058;-91
